createdAt,value
2018-12-07T00:02:34.600Z,101069.95
2018-12-07T00:05:15.406Z,101069.77
2018-12-07T00:07:56.259Z,101073.95
2018-12-07T00:10:37.030Z,101075.48
2018-12-07T00:13:18.108Z,101072.02
2018-12-07T00:15:58.806Z,101068.09
2018-12-07T00:18:39.704Z,101067.27
2018-12-07T00:21:20.667Z,101065.95
2018-12-07T00:24:01.959Z,101071.59
2018-12-07T00:26:42.671Z,101067.58
2018-12-07T00:29:23.545Z,101071.11
2018-12-07T00:32:04.503Z,101082.08
2018-12-07T00:34:45.190Z,101077.39
2018-12-07T00:37:26.111Z,101086.77
2018-12-07T00:40:06.827Z,101089.53
2018-12-07T00:42:47.705Z,101087.60
2018-12-07T00:45:28.586Z,101090.50
2018-12-07T00:48:09.632Z,101091.52
2018-12-07T00:50:50.670Z,101093.78
2018-12-07T00:53:31.588Z,101094.37
2018-12-07T00:56:12.509Z,101100.45
2018-12-07T00:58:53.334Z,101104.64
2018-12-07T01:01:34.523Z,101114.63
2018-12-07T01:04:15.386Z,101115.37
2018-12-07T01:06:56.058Z,101125.19
2018-12-07T01:09:37.041Z,101125.16
2018-12-07T01:12:17.704Z,101127.48
2018-12-07T01:14:58.263Z,101131.27
2018-12-07T01:17:39.232Z,101132.42
2018-12-07T01:20:19.949Z,101139.70
2018-12-07T01:23:01.157Z,101147.58
2018-12-07T01:25:42.147Z,101149.27
2018-12-07T01:28:23.076Z,101154.24
2018-12-07T01:31:03.894Z,101169.06
2018-12-07T01:33:44.871Z,101165.50
2018-12-07T01:36:25.738Z,101164.69
2018-12-07T01:39:06.304Z,101169.88
2018-12-07T01:41:47.265Z,101181.50
2018-12-07T01:44:28.182Z,101181.55
2018-12-07T01:47:09.462Z,101182.56
2018-12-07T01:49:50.198Z,101184.80
2018-12-07T01:52:30.837Z,101191.70
2018-12-07T01:55:11.864Z,101200.81
2018-12-07T01:57:53.115Z,101212.11
2018-12-07T02:00:34.265Z,101218.36
2018-12-07T02:03:15.272Z,101223.45
2018-12-07T02:05:55.880Z,101226.13
2018-12-07T02:08:36.594Z,101222.58
2018-12-07T02:11:17.576Z,101226.97
2018-12-07T02:13:58.556Z,101236.13
2018-12-07T02:16:40.034Z,101242.40
2018-12-07T02:19:20.705Z,101242.43
2018-12-07T02:22:01.307Z,101242.12
2018-12-07T02:24:42.594Z,101247.13
2018-12-07T02:27:23.913Z,101252.11
2018-12-07T02:30:04.700Z,101253.02
2018-12-07T02:32:45.574Z,101259.34
2018-12-07T02:35:26.553Z,101267.27
2018-12-07T02:38:07.117Z,101272.92
2018-12-07T02:40:47.775Z,101275.19
2018-12-07T02:43:29.014Z,101278.03
2018-12-07T02:46:09.630Z,101283.43
2018-12-07T02:48:50.388Z,101281.89
2018-12-07T02:51:30.988Z,101278.51
2018-12-07T02:54:11.910Z,101284.39
2018-12-07T02:56:53.148Z,101286.88
2018-12-07T02:59:34.688Z,101302.95
2018-12-07T03:02:15.551Z,101302.57
2018-12-07T03:04:56.112Z,101307.09
2018-12-07T03:07:37.109Z,101301.58
2018-12-07T03:10:17.876Z,101299.48
2018-12-07T03:12:58.414Z,101303.42
2018-12-07T03:15:39.662Z,101307.25
2018-12-07T03:18:20.188Z,101307.06
2018-12-07T03:21:00.833Z,101309.05
2018-12-07T03:23:41.315Z,101309.08
2018-12-07T03:26:22.711Z,101306.84
2018-12-07T03:29:03.297Z,101306.88
2018-12-07T03:31:43.803Z,101313.59
2018-12-07T03:34:28.870Z,101308.28
2018-12-07T03:37:13.511Z,101307.28
2018-12-07T03:39:54.310Z,101303.14
2018-12-07T03:42:35.572Z,101304.62
2018-12-07T03:45:16.610Z,101302.30
2018-12-07T03:47:57.129Z,101299.29
2018-12-07T03:50:37.592Z,101297.98
2018-12-07T03:53:17.677Z,101294.30
2018-12-07T03:55:58.186Z,101297.80
2018-12-07T03:58:51.902Z,101292.30
2018-12-07T04:01:39.658Z,101283.30
2018-12-07T04:07:20.837Z,101277.66
2018-12-07T04:10:01.467Z,101270.02
2018-12-07T04:12:42.028Z,101266.34
2018-12-07T04:15:22.421Z,101268.81
2018-12-07T04:18:02.627Z,101264.83
2018-12-07T04:20:43.387Z,101258.34
2018-12-07T04:23:23.789Z,101264.33
2018-12-07T04:26:04.318Z,101254.83
2018-12-07T04:28:44.838Z,101246.17
2018-12-07T04:31:25.382Z,101238.50
2018-12-07T04:34:06.548Z,101243.00
2018-12-07T04:36:47.355Z,101229.17
2018-12-07T04:39:27.707Z,101241.49
2018-12-07T04:42:08.155Z,101239.55
2018-12-07T04:44:48.387Z,101232.02
2018-12-07T04:47:28.877Z,101232.38
2018-12-07T04:50:13.402Z,101230.03
2018-12-07T04:52:55.110Z,101223.09
2018-12-07T04:55:35.723Z,101214.20
2018-12-07T04:58:16.076Z,101219.17
2018-12-07T05:00:56.429Z,101210.13
2018-12-07T05:03:37.077Z,101210.23
2018-12-07T05:06:17.515Z,101208.09
2018-12-07T05:08:58.287Z,101201.81
2018-12-07T05:11:38.517Z,101203.05
2018-12-07T05:14:18.925Z,101188.81
2018-12-07T05:16:58.954Z,101192.44
2018-12-07T05:19:38.989Z,101190.00
2018-12-07T05:22:19.015Z,101183.30
2018-12-07T05:24:59.141Z,101181.53
2018-12-07T05:27:39.261Z,101173.32
2018-12-07T05:30:19.878Z,101170.83
2018-12-07T05:33:00.188Z,101169.73
2018-12-07T05:35:40.936Z,101163.65
2018-12-07T05:38:21.228Z,101157.07
2018-12-07T05:41:01.506Z,101156.55
2018-12-07T05:43:42.439Z,101145.33
2018-12-07T05:46:22.603Z,101136.27
2018-12-07T05:49:03.297Z,101133.16
2018-12-07T05:51:43.517Z,101127.87
2018-12-07T05:54:23.786Z,101123.02
2018-12-07T05:57:04.682Z,101113.20
2018-12-07T05:59:44.909Z,101112.53
2018-12-07T06:02:25.354Z,101108.98
2018-12-07T06:05:06.345Z,101103.92
2018-12-07T06:07:47.568Z,101101.02
2018-12-07T06:10:27.989Z,101096.52
2018-12-07T06:13:09.467Z,101092.55
2018-12-07T06:15:50.288Z,101083.12
2018-12-07T06:18:31.221Z,101081.81
2018-12-07T06:21:12.088Z,101078.86
2018-12-07T06:23:52.348Z,101070.55
2018-12-07T06:26:32.984Z,101062.34
2018-12-07T06:29:13.162Z,101061.63
2018-12-07T06:31:53.945Z,101050.39
2018-12-07T06:34:34.483Z,101047.98
2018-12-07T06:37:14.860Z,101040.43
2018-12-07T06:39:57.657Z,101042.72
2018-12-07T06:42:38.344Z,101029.34
2018-12-07T06:45:18.914Z,101026.52
2018-12-07T06:47:59.259Z,101020.69
2018-12-07T06:50:39.836Z,101011.94
2018-12-07T06:53:20.672Z,101006.87
2018-12-07T06:56:01.560Z,101005.33
2018-12-07T06:58:42.021Z,101001.83
2018-12-07T07:01:22.684Z,100995.69
2018-12-07T07:04:02.646Z,100990.16
2018-12-07T07:06:42.913Z,100989.48
2018-12-07T07:09:23.338Z,100983.61
2018-12-07T07:12:03.506Z,100977.06
2018-12-07T07:14:43.976Z,100975.22
2018-12-07T07:17:24.548Z,100975.19
2018-12-07T07:20:05.033Z,100969.07
2018-12-07T07:22:45.656Z,100964.95
2018-12-07T07:25:26.311Z,100954.91
2018-12-07T07:28:06.628Z,100957.31
2018-12-07T07:30:47.151Z,100959.48
2018-12-07T07:33:28.042Z,100953.92
2018-12-07T07:36:09.326Z,100946.77
2018-12-07T07:38:50.393Z,100933.00
2018-12-07T07:41:31.728Z,100927.64
2018-12-07T07:44:12.559Z,100927.66
2018-12-07T07:46:53.521Z,100923.23
2018-12-07T07:49:34.263Z,100919.53
2018-12-07T07:52:15.035Z,100921.17
2018-12-07T07:54:55.843Z,100916.68
2018-12-07T07:57:36.840Z,100917.82
2018-12-07T08:00:18.267Z,100914.52
2018-12-07T08:03:00.011Z,100909.98
2018-12-07T08:05:40.237Z,100915.70
2018-12-07T08:08:21.044Z,100911.25
2018-12-07T08:11:02.423Z,100906.52
2018-12-07T08:13:42.627Z,100905.91
2018-12-07T08:16:23.547Z,100898.12
2018-12-07T08:19:04.175Z,100894.61
2018-12-07T08:21:45.012Z,100894.10
2018-12-07T08:24:25.640Z,100888.78
2018-12-07T08:27:15.033Z,100879.92
2018-12-07T08:30:04.390Z,100876.05
2018-12-07T08:32:46.147Z,100870.09
2018-12-07T08:35:26.064Z,100871.95
2018-12-07T08:38:07.077Z,100877.34
2018-12-07T08:40:51.359Z,100875.67
2018-12-07T08:43:37.872Z,100870.77
2018-12-07T08:46:19.717Z,100872.67
2018-12-07T08:48:59.866Z,100866.97
2018-12-07T08:51:40.505Z,100871.53
2018-12-07T08:54:20.980Z,100868.34
2018-12-07T08:57:01.886Z,100868.96
2018-12-07T08:59:42.799Z,100866.16
2018-12-07T09:02:23.094Z,100862.67
2018-12-07T09:05:04.030Z,100862.67
2018-12-07T09:07:44.997Z,100866.90
2018-12-07T09:10:25.233Z,100864.53
2018-12-07T09:13:05.954Z,100859.15
2018-12-07T09:15:47.547Z,100857.12
2018-12-07T09:18:28.110Z,100854.40
2018-12-07T09:21:08.012Z,100861.13
2018-12-07T09:23:49.640Z,100859.98
2018-12-07T09:26:30.539Z,100857.59
2018-12-07T09:29:10.522Z,100862.39
2018-12-07T09:31:51.478Z,100861.61
2018-12-07T09:34:32.118Z,100861.41
2018-12-07T09:37:12.785Z,100856.69
2018-12-07T09:39:53.666Z,100858.27
2018-12-07T09:42:34.588Z,100851.39
2018-12-07T09:45:15.307Z,100851.48
2018-12-07T09:47:56.265Z,100855.49
2018-12-07T09:50:37.064Z,100855.17
2018-12-07T09:53:17.961Z,100847.78
2018-12-07T09:55:59.383Z,100850.39
2018-12-07T09:58:40.080Z,100844.33
2018-12-07T10:01:21.366Z,100847.27
2018-12-07T10:04:02.110Z,100841.96
2018-12-07T10:06:43.190Z,100842.79
2018-12-07T10:09:23.978Z,100836.52
2018-12-07T10:12:04.661Z,100842.28
2018-12-07T10:14:45.467Z,100833.68
2018-12-07T10:17:25.673Z,100832.86
2018-12-07T10:20:06.525Z,100847.01
2018-12-07T10:22:47.325Z,100851.25
2018-12-07T10:25:28.118Z,100846.91
2018-12-07T10:28:08.318Z,100857.64
2018-12-07T10:30:49.305Z,100867.27
2018-12-07T10:33:29.989Z,100873.86
2018-12-07T10:36:10.618Z,100881.23
2018-12-07T10:38:51.564Z,100876.97
2018-12-07T10:41:32.789Z,100873.97
2018-12-07T10:44:13.819Z,100874.53
2018-12-07T10:46:54.265Z,100878.43
2018-12-07T10:49:34.753Z,100878.33
2018-12-07T10:52:15.707Z,100870.41
2018-12-07T10:54:56.553Z,100875.58
2018-12-07T10:57:36.972Z,100877.57
2018-12-07T11:00:22.764Z,100887.23
2018-12-07T11:02:59.341Z,100889.41
2018-12-07T11:05:40.221Z,100888.00
2018-12-07T11:08:21.149Z,100884.16
2018-12-07T11:11:02.174Z,100886.77
2018-12-07T11:13:42.236Z,100896.42
2018-12-07T11:16:23.051Z,100894.51
2018-12-07T11:19:03.745Z,100893.99
2018-12-07T11:21:43.996Z,100904.13
2018-12-07T11:24:24.468Z,100905.28
2018-12-07T11:27:05.342Z,100913.73
2018-12-07T11:29:46.314Z,100913.12
2018-12-07T11:32:26.800Z,100911.77
2018-12-07T11:35:06.903Z,100914.89
2018-12-07T11:37:47.590Z,100915.03
2018-12-07T11:40:28.716Z,100920.61
2018-12-07T11:43:09.713Z,100918.70
2018-12-07T11:45:50.310Z,100916.05
2018-12-07T11:48:31.393Z,100922.66
2018-12-07T11:51:13.313Z,100920.78
2018-12-07T11:53:53.193Z,100924.07
2018-12-07T11:56:33.815Z,100929.30
2018-12-07T11:59:14.683Z,100931.92
2018-12-07T12:01:55.563Z,100944.44
2018-12-07T12:04:36.307Z,100945.75
2018-12-07T12:07:16.996Z,100949.08
2018-12-07T12:09:57.860Z,100949.03
2018-12-07T12:12:41.073Z,100942.69
2018-12-07T12:15:22.463Z,100951.17
2018-12-07T12:18:02.595Z,100954.91
2018-12-07T12:20:42.732Z,100958.34
2018-12-07T12:23:23.342Z,100961.71
2018-12-07T12:26:04.198Z,100964.31
2018-12-07T12:28:44.610Z,100965.28
2018-12-07T12:31:24.819Z,100967.22
2018-12-07T12:34:05.262Z,100967.58
2018-12-07T12:36:45.946Z,100971.80
2018-12-07T12:39:26.273Z,100975.39
2018-12-07T12:42:06.755Z,100977.73
2018-12-07T12:44:47.749Z,100981.64
2018-12-07T12:47:28.324Z,100987.35
2018-12-07T12:50:11.714Z,100988.58
2018-12-07T12:52:51.825Z,100997.28
2018-12-07T12:55:32.597Z,101003.30
2018-12-07T12:58:13.140Z,101007.31
2018-12-07T13:00:53.603Z,101003.37
2018-12-07T13:03:33.954Z,101005.84
2018-12-07T13:06:14.572Z,101012.22
2018-12-07T13:08:54.664Z,101008.96
2018-12-07T13:11:35.101Z,101014.27
2018-12-07T13:14:15.268Z,101016.17
2018-12-07T13:16:55.533Z,101025.09
2018-12-07T13:19:35.587Z,101025.92
2018-12-07T13:22:16.034Z,101022.70
2018-12-07T13:24:56.728Z,101037.67
2018-12-07T13:27:37.222Z,101033.17
2018-12-07T13:30:18.675Z,101042.18
2018-12-07T13:32:59.113Z,101040.78
2018-12-07T13:35:39.399Z,101049.27
2018-12-07T13:38:22.469Z,101055.27
2018-12-07T13:41:02.829Z,101054.44
2018-12-07T13:43:43.426Z,101056.56
2018-12-07T13:46:24.784Z,101061.53
2018-12-07T13:49:05.176Z,101063.34
2018-12-07T13:51:48.666Z,101073.63
2018-12-07T13:54:29.459Z,101085.74
2018-12-07T13:57:09.761Z,101084.30
2018-12-07T13:59:50.333Z,101076.38
2018-12-07T14:02:30.671Z,101079.97
2018-12-07T14:05:11.710Z,101083.91
2018-12-07T14:07:52.720Z,101088.83
2018-12-07T14:10:33.312Z,101085.72
2018-12-07T14:13:14.039Z,101085.97
2018-12-07T14:15:54.593Z,101092.41
2018-12-07T14:18:35.380Z,101090.22
2018-12-07T14:21:15.855Z,101091.09
2018-12-07T14:23:56.368Z,101080.94
2018-12-07T14:26:36.558Z,101087.04
2018-12-07T14:29:16.793Z,101082.99
2018-12-07T14:31:57.267Z,101090.50
2018-12-07T14:34:37.728Z,101098.75
2018-12-07T14:37:18.695Z,101099.97
2018-12-07T14:39:59.207Z,101100.05
2018-12-07T14:42:39.478Z,101104.14
2018-12-07T14:45:20.033Z,101113.22
2018-12-07T14:48:00.553Z,101111.42
2018-12-07T14:50:41.143Z,101111.42
2018-12-07T14:53:21.755Z,101116.45
2018-12-07T14:56:01.944Z,101125.64
2018-12-07T14:58:42.288Z,101124.80
2018-12-07T15:01:22.923Z,101128.75
2018-12-07T15:04:03.439Z,101134.72
2018-12-07T15:06:43.895Z,101139.83
2018-12-07T15:09:24.228Z,101146.88
2018-12-07T15:12:04.746Z,101151.67
2018-12-07T15:14:45.436Z,101147.25
2018-12-07T15:17:26.143Z,101150.91
2018-12-07T15:20:06.536Z,101160.16
2018-12-07T15:22:47.045Z,101157.00
2018-12-07T15:25:27.128Z,101156.64
2018-12-07T15:28:08.340Z,101157.02
2018-12-07T15:30:48.790Z,101160.50
2018-12-07T15:33:29.368Z,101161.11
2018-12-07T15:36:09.425Z,101163.59
2018-12-07T15:38:50.052Z,101166.11
2018-12-07T15:41:35.331Z,101172.87
2018-12-07T15:44:17.330Z,101180.28
2018-12-07T15:46:59.380Z,101182.55
2018-12-07T15:49:39.681Z,101187.72
2018-12-07T15:52:19.626Z,101186.33
2018-12-07T15:55:03.516Z,101190.09
2018-12-07T15:57:45.542Z,101193.96
2018-12-07T16:00:25.748Z,101195.87
2018-12-07T16:03:05.962Z,101205.02
2018-12-07T16:05:47.129Z,101203.02
2018-12-07T16:08:27.646Z,101208.18
2018-12-07T16:11:08.404Z,101210.03
2018-12-07T16:13:49.230Z,101212.54
2018-12-07T16:16:32.235Z,101211.70
2018-12-07T16:19:12.717Z,101214.52
2018-12-07T16:21:53.356Z,101212.16
2018-12-07T16:24:33.807Z,101211.17
2018-12-07T16:27:14.276Z,101209.82
2018-12-07T16:29:55.317Z,101211.38
2018-12-07T16:32:36.518Z,101218.08
2018-12-07T16:35:16.563Z,101216.06
2018-12-07T16:37:56.753Z,101215.57
2018-12-07T16:40:37.498Z,101216.66
2018-12-07T16:43:17.617Z,101209.33
2018-12-07T16:45:58.098Z,101215.64
2018-12-07T16:48:38.230Z,101216.61
2018-12-07T16:51:18.589Z,101216.53
2018-12-07T16:53:58.745Z,101214.06
2018-12-07T16:56:47.565Z,101216.59
2018-12-07T16:59:28.690Z,101214.99
2018-12-07T17:02:09.628Z,101214.89
2018-12-07T17:04:50.331Z,101213.97
2018-12-07T17:07:30.996Z,101222.21
2018-12-07T17:10:11.482Z,101222.16
2018-12-07T17:12:52.195Z,101211.84
2018-12-07T17:15:33.238Z,101212.14
2018-12-07T17:18:14.448Z,101216.84
2018-12-07T17:27:55.922Z,101222.17
2018-12-07T17:30:36.523Z,101221.28
2018-12-07T17:33:17.793Z,101222.70
2018-12-07T17:35:58.480Z,101225.52
2018-12-07T17:38:45.377Z,101222.16
2018-12-07T17:41:28.471Z,101228.91
2018-12-07T17:44:15.541Z,101224.73
2018-12-07T17:46:55.905Z,101221.94
2018-12-07T17:49:36.198Z,101219.48
2018-12-07T17:52:17.044Z,101214.05
2018-12-07T17:54:57.903Z,101210.11
2018-12-07T17:57:47.810Z,101216.98
2018-12-07T18:06:14.186Z,101217.23
2018-12-07T18:08:55.114Z,101221.22
2018-12-07T18:11:36.346Z,101217.40
2018-12-07T18:14:17.153Z,101212.31
2018-12-07T18:16:58.464Z,101214.72
2018-12-07T18:19:39.571Z,101215.19
2018-12-07T18:22:20.877Z,101219.59
2018-12-07T18:25:02.349Z,101222.75
2018-12-07T18:27:43.530Z,101221.64
2018-12-07T18:30:24.638Z,101214.89
2018-12-07T18:33:05.656Z,101218.06
2018-12-07T18:35:46.818Z,101210.48
2018-12-07T18:38:27.780Z,101208.95
2018-12-07T18:41:09.678Z,101203.52
2018-12-07T18:43:50.703Z,101199.28
2018-12-07T18:46:31.539Z,101205.48
2018-12-07T18:49:12.706Z,101199.20
2018-12-07T18:51:53.855Z,101194.84
2018-12-07T18:54:34.814Z,101195.53
2018-12-07T18:57:15.391Z,101195.17
2018-12-07T18:59:56.529Z,101191.71
2018-12-07T19:02:37.211Z,101190.64
2018-12-07T19:05:17.517Z,101196.83
2018-12-07T19:07:58.342Z,101190.55
2018-12-07T19:10:39.398Z,101186.73
2018-12-07T19:13:20.401Z,101184.37
2018-12-07T19:16:01.147Z,101185.08
2018-12-07T19:18:42.169Z,101185.68
2018-12-07T19:21:23.329Z,101189.03
2018-12-07T19:24:04.013Z,101188.69
2018-12-07T19:26:45.303Z,101180.56
2018-12-07T19:29:26.922Z,101186.30
2018-12-07T19:32:08.100Z,101186.37
2018-12-07T19:34:49.088Z,101182.66
2018-12-07T19:37:30.114Z,101182.30
2018-12-07T19:45:54.771Z,101184.09
2018-12-07T19:48:35.426Z,101178.30
2018-12-07T19:51:15.639Z,101176.48
2018-12-07T19:53:56.613Z,101179.20
2018-12-07T19:56:37.834Z,101175.17
2018-12-07T19:59:18.591Z,101175.35
2018-12-07T20:02:00.382Z,101173.86
2018-12-07T20:04:41.902Z,101182.37
2018-12-07T20:07:23.122Z,101177.20
2018-12-07T20:10:03.640Z,101174.11
2018-12-07T20:12:44.841Z,101174.19
2018-12-07T20:15:25.721Z,101170.95
2018-12-07T20:18:06.255Z,101182.48
2018-12-07T20:20:46.793Z,101190.13
2018-12-07T20:23:28.056Z,101180.95
2018-12-07T20:26:08.997Z,101185.36
2018-12-07T20:28:49.795Z,101185.83
2018-12-07T20:31:31.036Z,101186.19
2018-12-07T20:34:11.871Z,101192.44
2018-12-07T20:36:52.712Z,101190.66
2018-12-07T20:39:33.709Z,101182.10
2018-12-07T20:42:15.178Z,101183.56
2018-12-07T20:44:55.790Z,101184.62
2018-12-07T20:47:36.885Z,101185.11
2018-12-07T20:50:17.692Z,101178.48
2018-12-07T20:52:58.680Z,101171.18
2018-12-07T20:55:39.070Z,101172.50
2018-12-07T20:58:20.240Z,101168.62
2018-12-07T21:01:01.193Z,101162.33
2018-12-07T21:03:41.587Z,101158.54
2018-12-07T21:06:22.355Z,101169.16
2018-12-07T21:09:02.970Z,101170.37
2018-12-07T21:11:43.844Z,101157.56
2018-12-07T21:14:24.632Z,101163.42
2018-12-07T21:17:06.114Z,101163.09
2018-12-07T21:19:46.909Z,101168.28
2018-12-07T21:22:27.726Z,101162.46
2018-12-07T21:25:08.746Z,101166.94
2018-12-07T21:27:49.299Z,101164.14
2018-12-07T21:30:29.977Z,101166.70
2018-12-07T21:33:10.500Z,101166.27
2018-12-07T21:35:50.778Z,101160.71
2018-12-07T21:38:31.431Z,101164.80
2018-12-07T21:41:11.801Z,101170.31
2018-12-07T21:43:52.481Z,101170.87
2018-12-07T21:46:33.033Z,101173.62
2018-12-07T21:49:14.033Z,101171.73
2018-12-07T21:51:54.855Z,101172.09
2018-12-07T21:54:35.448Z,101170.71
2018-12-07T21:57:16.101Z,101172.86
2018-12-07T21:59:56.826Z,101184.20
2018-12-07T22:02:37.995Z,101183.64
2018-12-07T22:05:18.816Z,101177.20
2018-12-07T22:07:59.836Z,101181.26
2018-12-07T22:10:41.064Z,101180.16
2018-12-07T22:13:22.489Z,101179.11
2018-12-07T22:16:03.228Z,101184.35
2018-12-07T22:18:43.303Z,101188.20
2018-12-07T22:21:24.436Z,101187.94
2018-12-07T22:24:05.737Z,101185.69
2018-12-07T22:26:46.071Z,101187.28
2018-12-07T22:29:27.693Z,101181.76
2018-12-07T22:32:08.524Z,101182.33
2018-12-07T22:34:49.674Z,101179.06
2018-12-07T22:37:30.800Z,101180.08
2018-12-07T22:40:11.690Z,101181.21
2018-12-07T22:42:53.004Z,101176.89
2018-12-07T22:45:33.547Z,101179.61
2018-12-07T22:48:13.903Z,101175.53
2018-12-07T22:50:54.697Z,101182.44
2018-12-07T22:53:35.721Z,101182.08
2018-12-07T22:56:16.985Z,101182.08
2018-12-07T22:58:57.993Z,101187.92
2018-12-07T23:01:37.942Z,101186.72
2018-12-07T23:04:18.627Z,101186.72
2018-12-07T23:06:59.348Z,101190.00
2018-12-07T23:09:40.265Z,101193.27
2018-12-07T23:12:20.638Z,101197.92
2018-12-07T23:15:01.782Z,101201.23
2018-12-07T23:17:42.272Z,101202.44
2018-12-07T23:20:22.758Z,101206.61
2018-12-07T23:23:03.022Z,101208.77
2018-12-07T23:25:44.187Z,101212.07
2018-12-07T23:28:24.711Z,101219.24
2018-12-07T23:31:05.692Z,101225.32
2018-12-07T23:33:46.353Z,101231.80
2018-12-07T23:36:26.902Z,101230.75
2018-12-07T23:39:07.907Z,101233.47
2018-12-07T23:41:48.464Z,101235.52
2018-12-07T23:44:29.232Z,101243.00
2018-12-07T23:47:10.205Z,101241.97
2018-12-07T23:49:51.015Z,101251.80
2018-12-07T23:52:32.187Z,101251.80
2018-12-07T23:55:12.987Z,101257.78
2018-12-07T23:57:53.987Z,101261.70
